createdAt,value
2018-12-20T00:02:26.811Z,8.83
2018-12-20T00:03:25.469Z,8.92
2018-12-20T00:06:05.573Z,8.83
2018-12-20T00:07:04.188Z,8.87
2018-12-20T00:08:02.992Z,8.83
2018-12-20T00:09:01.522Z,8.8
2018-12-20T00:10:00.114Z,8.81
2018-12-20T00:10:58.591Z,9.01
2018-12-20T00:11:57.140Z,8.94
2018-12-20T00:12:55.655Z,8.86
2018-12-20T00:13:54.430Z,8.74
2018-12-20T00:35:17.242Z,8.79
2018-12-20T00:36:15.914Z,8.71
2018-12-20T00:37:14.455Z,8.68
2018-12-20T00:38:13.213Z,8.79
2018-12-20T00:39:11.613Z,8.71
2018-12-20T00:40:10.159Z,8.58
2018-12-20T00:41:10.750Z,8.58
2018-12-20T00:42:09.288Z,8.7
2018-12-20T00:43:07.868Z,8.74
2018-12-20T00:44:06.589Z,8.74
2018-12-20T00:45:05.493Z,8.65
2018-12-20T00:46:03.930Z,8.76
2018-12-20T00:47:02.724Z,8.63
2018-12-20T00:48:01.380Z,8.63
2018-12-20T00:48:59.842Z,8.65
2018-12-20T00:50:59.513Z,8.79
2018-12-20T00:51:58.000Z,8.81
2018-12-20T00:52:56.670Z,8.91
2018-12-20T00:55:04.439Z,8.96
2018-12-20T00:56:03.061Z,9.08
2018-12-20T00:57:01.593Z,9.02
2018-12-20T00:58:00.123Z,8.99
2018-12-20T00:58:58.901Z,8.96
2018-12-20T00:59:57.301Z,9.04
2018-12-20T01:00:55.858Z,9.1
2018-12-20T01:01:54.335Z,9.1
2018-12-20T01:02:55.326Z,8.92
2018-12-20T01:03:51.594Z,8.98
2018-12-20T01:04:50.291Z,8.98
2018-12-20T01:05:49.106Z,8.96
2018-12-20T01:06:47.607Z,8.94
2018-12-20T01:07:46.194Z,8.8
2018-12-20T01:08:44.738Z,8.79
2018-12-20T01:09:43.316Z,8.92
2018-12-20T01:12:23.667Z,9.13
2018-12-20T01:13:22.265Z,9.1
2018-12-20T01:14:21.140Z,9.15
2018-12-20T01:15:19.715Z,9.15
2018-12-20T01:16:18.183Z,9.17
2018-12-20T01:17:18.439Z,8.96
2018-12-20T01:19:57.182Z,8.96
2018-12-20T01:20:55.678Z,8.87
2018-12-20T01:21:54.344Z,8.81
2018-12-20T01:41:38.556Z,8.86
2018-12-20T01:42:37.450Z,8.84
2018-12-20T01:43:35.945Z,8.84
2018-12-20T01:44:34.422Z,8.84
2018-12-20T01:45:33.089Z,8.86
2018-12-20T01:46:31.698Z,8.83
2018-12-20T01:47:30.283Z,8.81
2018-12-20T01:48:29.018Z,8.77
2018-12-20T01:49:27.438Z,8.7
2018-12-20T01:50:26.065Z,8.73
2018-12-20T01:51:24.979Z,8.76
2018-12-20T01:52:23.441Z,8.74
2018-12-20T01:53:22.183Z,8.83
2018-12-20T01:54:20.535Z,8.74
2018-12-20T01:55:19.211Z,8.61
2018-12-20T01:56:17.793Z,8.73
2018-12-20T01:57:16.468Z,8.7
2018-12-20T01:58:15.003Z,8.76
2018-12-20T01:59:13.639Z,8.87
2018-12-20T02:00:12.542Z,8.83
2018-12-20T02:01:11.053Z,8.86
2018-12-20T02:02:09.639Z,8.94
2018-12-20T02:03:08.173Z,9.01
2018-12-20T02:04:06.824Z,8.92
2018-12-20T02:05:05.269Z,8.91
2018-12-20T02:06:03.817Z,8.81
2018-12-20T02:07:02.225Z,8.73
2018-12-20T02:08:00.790Z,8.84
2018-12-20T02:08:59.596Z,8.91
2018-12-20T02:09:57.828Z,9.02
2018-12-20T02:10:56.677Z,8.95
2018-12-20T02:11:55.366Z,9.1
2018-12-20T02:12:53.902Z,9.11
2018-12-20T02:13:52.598Z,9.04
2018-12-20T02:14:51.397Z,9.08
2018-12-20T02:15:50.027Z,8.92
2018-12-20T02:18:29.943Z,8.98
2018-12-20T02:19:28.781Z,9.01
2018-12-20T02:20:27.388Z,9.01
2018-12-20T02:21:25.980Z,8.87
2018-12-20T02:22:24.933Z,8.95
2018-12-20T02:23:23.378Z,8.83
2018-12-20T02:24:21.893Z,8.84
2018-12-20T02:25:20.416Z,8.86
2018-12-20T02:27:55.340Z,9.02
2018-12-20T02:28:53.875Z,9.08
2018-12-20T02:29:52.614Z,9.02
2018-12-20T02:30:51.092Z,8.87
2018-12-20T02:31:49.588Z,8.81
2018-12-20T02:32:48.293Z,8.91
2018-12-20T02:33:46.971Z,8.96
2018-12-20T02:34:45.724Z,8.96
2018-12-20T02:35:44.563Z,9.1
2018-12-20T02:36:43.069Z,8.98
2018-12-20T02:37:41.649Z,8.95
2018-12-20T02:38:40.331Z,9.05
2018-12-20T02:39:38.726Z,9.13
2018-12-20T02:40:37.314Z,9.14
2018-12-20T02:41:35.737Z,9.14
2018-12-20T02:42:34.245Z,9.28
2018-12-20T02:43:32.790Z,9.17
2018-12-20T02:44:31.362Z,9.31
2018-12-20T02:45:30.167Z,9.13
2018-12-20T02:46:28.425Z,9.23
2018-12-20T02:47:27.319Z,9.1
2018-12-20T02:48:25.937Z,9.08
2018-12-20T02:49:24.753Z,9.14
2018-12-20T02:50:23.324Z,9.14
2018-12-20T02:51:21.890Z,9.13
2018-12-20T02:52:20.367Z,9.13
2018-12-20T02:53:19.122Z,9.1
2018-12-20T02:54:17.508Z,9.04
2018-12-20T02:55:16.105Z,9.1
2018-12-20T02:56:14.705Z,8.96
2018-12-20T02:57:13.076Z,9.11
2018-12-20T02:58:11.567Z,9.08
2018-12-20T02:59:10.294Z,9.14
2018-12-20T03:00:08.942Z,9.11
2018-12-20T03:01:07.576Z,9.15
2018-12-20T03:02:06.092Z,9.15
2018-12-20T03:03:04.851Z,9.15
2018-12-20T03:04:03.399Z,9.28
2018-12-20T03:05:01.971Z,9.38
2018-12-20T03:06:00.526Z,9.26
2018-12-20T03:06:59.143Z,9.28
2018-12-20T03:07:57.733Z,9.39
2018-12-20T03:08:56.513Z,9.38
2018-12-20T03:09:55.226Z,9.39
2018-12-20T03:10:53.687Z,9.4
2018-12-20T03:11:52.240Z,9.35
2018-12-20T03:12:51.122Z,9.35
2018-12-20T03:13:49.646Z,9.35
2018-12-20T03:14:48.221Z,9.39
2018-12-20T03:15:46.957Z,9.31
2018-12-20T03:16:45.464Z,9.26
2018-12-20T03:17:44.011Z,9.32
2018-12-20T03:18:42.674Z,9.31
2018-12-20T03:19:41.390Z,9.31
2018-12-20T03:20:39.957Z,9.33
2018-12-20T03:21:38.756Z,9.32
2018-12-20T03:22:37.585Z,9.39
2018-12-20T03:23:35.957Z,9.32
2018-12-20T03:24:34.447Z,9.5
2018-12-20T03:25:33.110Z,9.39
2018-12-20T03:26:31.535Z,9.33
2018-12-20T03:27:30.340Z,9.42
2018-12-20T03:28:28.811Z,9.43
2018-12-20T03:29:27.452Z,9.38
2018-12-20T03:30:26.374Z,9.39
2018-12-20T03:31:24.850Z,9.35
2018-12-20T03:32:23.721Z,9.32
2018-12-20T03:33:22.016Z,9.46
2018-12-20T03:34:20.809Z,9.36
2018-12-20T03:35:19.265Z,9.38
2018-12-20T03:36:17.830Z,9.36
2018-12-20T03:37:16.493Z,9.35
2018-12-20T03:40:55.683Z,9.46
2018-12-20T03:41:54.063Z,9.53
2018-12-20T03:42:52.598Z,9.38
2018-12-20T03:43:51.294Z,9.39
2018-12-20T03:45:51.059Z,9.4
2018-12-20T03:46:49.440Z,9.43
2018-12-20T03:47:48.037Z,9.51
2018-12-20T03:48:46.832Z,9.51
2018-12-20T03:49:45.249Z,9.48
2018-12-20T03:50:43.782Z,9.48
2018-12-20T03:51:42.242Z,9.53
2018-12-20T03:52:40.753Z,9.53
2018-12-20T03:53:39.372Z,9.56
2018-12-20T03:54:37.816Z,9.38
2018-12-20T03:55:36.865Z,9.39
2018-12-20T03:56:35.111Z,9.54
2018-12-20T03:57:33.310Z,9.5
2018-12-20T03:58:31.939Z,9.38
2018-12-20T03:59:30.843Z,9.48
2018-12-20T04:00:29.557Z,9.33
2018-12-20T04:01:27.998Z,9.36
2018-12-20T04:02:26.806Z,9.39
2018-12-20T04:03:25.325Z,9.39
2018-12-20T04:04:23.873Z,9.38
2018-12-20T04:05:22.700Z,9.46
2018-12-20T04:06:21.196Z,9.35
2018-12-20T04:07:19.743Z,9.38
2018-12-20T04:08:18.377Z,9.39
2018-12-20T04:09:16.961Z,9.38
2018-12-20T04:10:15.552Z,9.35
2018-12-20T04:11:14.305Z,9.39
2018-12-20T04:12:12.985Z,9.53
2018-12-20T04:13:11.572Z,9.46
2018-12-20T04:14:10.301Z,9.56
2018-12-20T04:15:08.698Z,9.38
2018-12-20T04:16:07.197Z,9.47
2018-12-20T04:17:05.954Z,9.5
2018-12-20T04:18:04.543Z,9.51
2018-12-20T04:19:03.012Z,9.42
2018-12-20T04:20:01.606Z,9.5
2018-12-20T04:21:00.220Z,9.56
2018-12-20T04:21:58.985Z,9.53
2018-12-20T04:22:57.499Z,9.57
2018-12-20T04:23:56.259Z,9.6
2018-12-20T04:24:54.677Z,9.64
2018-12-20T04:25:53.257Z,9.71
2018-12-20T04:26:51.844Z,9.61
2018-12-20T04:27:50.525Z,9.64
2018-12-20T04:28:48.917Z,9.72
2018-12-20T04:29:47.661Z,9.51
2018-12-20T04:30:46.011Z,9.5
2018-12-20T04:31:44.838Z,9.56
2018-12-20T04:32:43.579Z,9.54
2018-12-20T04:33:41.887Z,9.51
2018-12-20T04:34:40.885Z,9.56
2018-12-20T04:35:39.434Z,9.61
2018-12-20T04:36:38.028Z,9.58
2018-12-20T04:37:36.594Z,9.47
2018-12-20T04:38:35.200Z,9.57
2018-12-20T04:39:33.714Z,9.56
2018-12-20T04:40:32.417Z,9.51
2018-12-20T04:41:31.142Z,9.54
2018-12-20T04:42:29.692Z,9.5
2018-12-20T04:43:28.356Z,9.54
2018-12-20T04:44:27.255Z,9.53
2018-12-20T04:45:25.682Z,9.5
2018-12-20T04:46:26.504Z,9.5
2018-12-20T04:47:25.123Z,9.54
2018-12-20T04:48:23.667Z,9.48
2018-12-20T04:49:22.348Z,9.51
2018-12-20T04:50:21.126Z,9.54
2018-12-20T04:51:19.823Z,9.5
2018-12-20T04:52:18.297Z,9.51
2018-12-20T04:53:16.709Z,9.51
2018-12-20T04:54:15.346Z,9.36
2018-12-20T04:55:13.825Z,9.36
2018-12-20T04:56:12.791Z,9.43
2018-12-20T04:57:11.430Z,9.35
2018-12-20T04:58:10.090Z,9.4
2018-12-20T04:59:08.798Z,9.35
2018-12-20T05:00:07.270Z,9.39
2018-12-20T05:01:06.060Z,9.4
2018-12-20T05:02:04.510Z,9.43
2018-12-20T05:03:03.206Z,9.4
2018-12-20T05:04:01.543Z,9.56
2018-12-20T05:05:00.101Z,9.36
2018-12-20T05:05:58.778Z,9.35
2018-12-20T05:06:57.380Z,9.38
2018-12-20T05:07:56.141Z,9.4
2018-12-20T05:08:55.050Z,9.38
2018-12-20T05:09:53.566Z,9.28
2018-12-20T05:10:51.984Z,9.43
2018-12-20T05:11:50.573Z,9.5
2018-12-20T05:12:48.957Z,9.56
2018-12-20T05:13:47.530Z,9.48
2018-12-20T05:14:46.208Z,9.38
2018-12-20T05:15:44.647Z,9.46
2018-12-20T05:16:43.271Z,9.5
2018-12-20T05:17:41.776Z,9.42
2018-12-20T05:18:40.333Z,9.35
2018-12-20T05:19:39.104Z,9.39
2018-12-20T05:20:37.581Z,9.42
2018-12-20T05:21:36.140Z,9.54
2018-12-20T05:22:34.926Z,9.56
2018-12-20T05:23:33.469Z,9.5
2018-12-20T05:24:31.981Z,9.46
2018-12-20T05:25:30.703Z,9.33
2018-12-20T05:26:29.318Z,9.42
2018-12-20T05:27:27.792Z,9.4
2018-12-20T05:28:26.611Z,9.38
2018-12-20T05:29:25.096Z,9.36
2018-12-20T05:30:23.691Z,9.43
2018-12-20T05:31:22.196Z,9.39
2018-12-20T05:32:21.457Z,9.51
2018-12-20T05:33:19.648Z,9.42
2018-12-20T05:34:18.232Z,9.39
2018-12-20T05:35:16.863Z,9.46
2018-12-20T05:36:15.369Z,9.57
2018-12-20T05:37:13.937Z,9.5
2018-12-20T05:38:12.708Z,9.54
2018-12-20T05:39:11.843Z,9.48
2018-12-20T05:40:10.339Z,9.46
2018-12-20T05:41:09.229Z,9.56
2018-12-20T05:42:07.506Z,9.46
2018-12-20T05:43:06.377Z,9.47
2018-12-20T05:44:04.574Z,9.5
2018-12-20T05:46:44.924Z,9.51
2018-12-20T05:47:43.483Z,9.39
2018-12-20T05:48:42.312Z,9.33
2018-12-20T05:49:40.814Z,9.42
2018-12-20T05:50:39.493Z,9.51
2018-12-20T05:51:38.292Z,9.36
2018-12-20T05:52:36.860Z,9.35
2018-12-20T05:53:35.462Z,9.36
2018-12-20T05:54:33.967Z,9.42
2018-12-20T05:55:32.581Z,9.35
2018-12-20T05:56:32.075Z,9.42
2018-12-20T05:57:30.826Z,9.38
2018-12-20T05:58:29.478Z,9.39
2018-12-20T05:59:28.041Z,9.33
2018-12-20T06:00:26.593Z,9.5
2018-12-20T06:01:25.160Z,9.38
2018-12-20T06:02:23.692Z,9.39
2018-12-20T06:03:22.240Z,9.47
2018-12-20T06:04:21.159Z,9.51
2018-12-20T06:05:19.693Z,9.58
2018-12-20T06:06:18.168Z,9.51
2018-12-20T06:07:17.041Z,9.5
2018-12-20T06:08:15.589Z,9.54
2018-12-20T06:09:14.236Z,9.39
2018-12-20T06:10:12.838Z,9.36
2018-12-20T06:11:11.396Z,9.38
2018-12-20T06:12:09.886Z,9.35
2018-12-20T06:13:08.627Z,9.4
2018-12-20T06:14:07.477Z,9.4
2018-12-20T06:16:47.572Z,9.38
2018-12-20T06:17:45.978Z,9.39
2018-12-20T06:18:45.395Z,9.28
2018-12-20T06:19:43.790Z,9.29
2018-12-20T06:20:42.579Z,9.36
2018-12-20T06:21:41.240Z,9.36
2018-12-20T06:22:39.785Z,9.54
2018-12-20T06:23:38.322Z,9.5
2018-12-20T06:24:37.101Z,9.51
2018-12-20T06:29:31.122Z,9.38
2018-12-20T06:30:29.654Z,9.57
2018-12-20T06:31:28.194Z,9.56
2018-12-20T06:32:26.908Z,9.43
2018-12-20T06:33:25.495Z,9.47
2018-12-20T06:34:24.060Z,9.51
2018-12-20T06:35:22.659Z,9.57
2018-12-20T06:36:21.223Z,9.51
2018-12-20T06:37:19.743Z,9.53
2018-12-20T06:38:18.442Z,9.51
2018-12-20T06:39:17.313Z,9.5
2018-12-20T06:40:16.453Z,9.4
2018-12-20T06:41:14.504Z,9.4
2018-12-20T06:42:13.099Z,9.42
2018-12-20T06:43:11.686Z,9.39
2018-12-20T06:44:10.272Z,9.46
2018-12-20T06:45:08.889Z,9.54
2018-12-20T06:46:07.420Z,9.5
2018-12-20T06:47:05.958Z,9.51
2018-12-20T06:48:04.575Z,9.58
2018-12-20T06:49:03.373Z,9.47
2018-12-20T06:50:01.942Z,9.51
2018-12-20T06:51:00.655Z,9.5
2018-12-20T06:51:59.321Z,9.5
2018-12-20T06:52:57.856Z,9.5
2018-12-20T06:53:56.427Z,9.57
2018-12-20T06:54:55.126Z,9.69
2018-12-20T06:55:53.715Z,9.61
2018-12-20T06:56:52.443Z,9.66
2018-12-20T06:57:51.263Z,9.71
2018-12-20T06:58:49.799Z,9.66
2018-12-20T07:01:30.144Z,9.57
2018-12-20T07:02:29.149Z,9.64
2018-12-20T07:03:27.712Z,9.54
2018-12-20T07:04:26.235Z,9.57
2018-12-20T07:05:24.866Z,9.54
2018-12-20T07:06:23.407Z,9.51
2018-12-20T07:07:21.949Z,9.51
2018-12-20T07:08:20.488Z,9.81
2018-12-20T07:09:19.059Z,9.93
2018-12-20T07:10:17.564Z,9.72
2018-12-20T07:11:16.137Z,9.79
2018-12-20T07:12:14.866Z,9.72
2018-12-20T07:13:13.674Z,9.75
2018-12-20T07:14:12.275Z,9.69
2018-12-20T07:15:10.906Z,9.71
2018-12-20T07:16:09.446Z,9.6
2018-12-20T07:17:08.015Z,9.71
2018-12-20T07:18:06.655Z,9.64
2018-12-20T07:19:05.192Z,9.71
2018-12-20T07:20:03.928Z,9.9
2018-12-20T07:21:02.526Z,9.87
2018-12-20T07:22:01.321Z,9.94
2018-12-20T07:22:59.871Z,10.29
2018-12-20T07:23:58.509Z,10.01
2018-12-20T07:24:57.175Z,9.79
2018-12-20T07:25:55.690Z,10.01
2018-12-20T07:26:54.223Z,9.75
2018-12-20T07:27:52.780Z,9.74
2018-12-20T07:28:51.310Z,9.57
2018-12-20T07:29:49.827Z,9.48
2018-12-20T07:30:48.427Z,9.6
2018-12-20T07:31:47.079Z,9.74
2018-12-20T07:32:45.626Z,9.83
2018-12-20T07:33:44.290Z,9.94
2018-12-20T07:36:24.932Z,9.76
2018-12-20T07:37:24.319Z,9.76
2018-12-20T07:38:22.019Z,9.68
2018-12-20T07:39:20.755Z,9.74
2018-12-20T07:40:19.380Z,9.72
2018-12-20T07:41:17.990Z,9.72
2018-12-20T07:42:16.702Z,9.65
2018-12-20T07:43:15.389Z,9.66
2018-12-20T07:44:14.012Z,9.71
2018-12-20T07:45:12.554Z,9.68
2018-12-20T07:46:11.255Z,9.72
2018-12-20T07:47:09.793Z,9.78
2018-12-20T07:48:08.360Z,9.69
2018-12-20T07:49:07.226Z,9.76
2018-12-20T07:50:06.760Z,9.72
2018-12-20T07:51:05.480Z,9.81
2018-12-20T07:52:04.037Z,9.71
2018-12-20T07:53:02.675Z,9.71
2018-12-20T07:54:01.213Z,9.71
2018-12-20T07:54:59.813Z,9.72
2018-12-20T07:55:58.432Z,9.76
2018-12-20T07:56:57.266Z,9.71
2018-12-20T07:57:55.819Z,9.83
2018-12-20T07:58:54.463Z,9.99
2018-12-20T07:59:53.162Z,10.08
2018-12-20T08:00:51.825Z,9.94
2018-12-20T08:01:50.540Z,10.18
2018-12-20T08:02:49.327Z,10.53
2018-12-20T08:03:47.885Z,11.22
2018-12-20T08:04:46.481Z,10.63
2018-12-20T08:05:45.216Z,10.18
2018-12-20T08:06:43.752Z,10.12
2018-12-20T08:07:42.287Z,10.07
2018-12-20T08:08:40.832Z,10.07
2018-12-20T08:09:39.356Z,10.34
2018-12-20T08:10:37.894Z,10.66
2018-12-20T08:11:36.468Z,10.61
2018-12-20T08:12:35.005Z,11.09
2018-12-20T08:13:33.518Z,10.67
2018-12-20T08:14:32.103Z,10.55
2018-12-20T08:15:30.776Z,10.53
2018-12-20T08:16:29.519Z,10.45
2018-12-20T08:17:28.055Z,10.38
2018-12-20T08:18:26.803Z,10.41
2018-12-20T08:19:25.459Z,10.32
2018-12-20T08:20:24.015Z,10.27
2018-12-20T08:21:22.590Z,10.27
2018-12-20T08:22:21.151Z,10.26
2018-12-20T08:23:19.730Z,10.33
2018-12-20T08:24:18.340Z,10.61
2018-12-20T08:25:17.187Z,10.51
2018-12-20T08:26:15.699Z,10.53
2018-12-20T08:27:14.370Z,10.71
2018-12-20T08:28:13.057Z,10.91
2018-12-20T08:29:11.641Z,10.59
2018-12-20T08:30:10.213Z,10.67
2018-12-20T08:31:08.814Z,10.48
2018-12-20T08:32:07.331Z,10.32
2018-12-20T08:33:05.946Z,10.34
2018-12-20T08:34:04.577Z,10.32
2018-12-20T08:35:03.354Z,10.2
2018-12-20T08:36:01.904Z,10.18
2018-12-20T08:37:00.551Z,10.14
2018-12-20T08:37:59.192Z,10.14
2018-12-20T08:38:57.717Z,10.05
2018-12-20T08:39:56.257Z,10.18
2018-12-20T08:40:54.835Z,10.12
2018-12-20T08:43:35.377Z,10.18
2018-12-20T08:44:33.959Z,10.12
2018-12-20T08:45:32.599Z,10.17
2018-12-20T08:46:31.770Z,10.4
2018-12-20T08:47:29.825Z,10.51
2018-12-20T08:48:28.381Z,10.61
2018-12-20T08:49:26.992Z,10.73
2018-12-20T08:50:25.463Z,10.66
2018-12-20T08:51:24.059Z,10.6
2018-12-20T08:52:22.837Z,10.44
2018-12-20T08:53:21.482Z,10.52
2018-12-20T08:54:20.002Z,10.55
2018-12-20T08:55:18.745Z,10.52
2018-12-20T08:56:17.452Z,10.44
2018-12-20T08:57:15.962Z,10.36
2018-12-20T08:58:14.517Z,10.38
2018-12-20T08:59:13.116Z,10.45
2018-12-20T09:00:11.652Z,10.53
2018-12-20T09:01:10.206Z,10.42
2018-12-20T09:02:08.969Z,10.59
2018-12-20T09:03:07.666Z,10.53
2018-12-20T09:04:06.315Z,10.52
2018-12-20T09:05:05.089Z,10.53
2018-12-20T09:07:45.251Z,10.52
2018-12-20T09:08:43.772Z,10.48
2018-12-20T09:09:42.280Z,10.52
2018-12-20T09:10:41.040Z,10.53
2018-12-20T09:11:39.627Z,10.55
2018-12-20T09:12:38.158Z,10.59
2018-12-20T09:13:37.048Z,10.61
2018-12-20T09:14:35.572Z,10.63
2018-12-20T09:15:34.086Z,10.86
2018-12-20T09:36:22.288Z,10.86
2018-12-20T09:37:20.962Z,10.84
2018-12-20T09:38:19.622Z,10.84
2018-12-20T09:39:18.170Z,10.91
2018-12-20T09:40:16.700Z,10.88
2018-12-20T09:41:15.210Z,10.85
2018-12-20T09:42:13.735Z,10.86
2018-12-20T09:43:12.249Z,10.88
2018-12-20T09:44:11.098Z,10.89
2018-12-20T09:45:09.735Z,11.07
2018-12-20T09:46:08.242Z,11.09
2018-12-20T09:47:11.535Z,11.11
2018-12-20T09:48:05.708Z,11.07
2018-12-20T09:49:04.238Z,11.22
2018-12-20T09:50:02.818Z,11.19
2018-12-20T09:51:01.389Z,11.43
2018-12-20T09:51:59.951Z,11.35
2018-12-20T09:52:58.735Z,11.29
2018-12-20T09:53:57.489Z,11.24
2018-12-20T09:54:56.021Z,11.43
2018-12-20T09:55:54.745Z,11.49
2018-12-20T09:56:53.386Z,11.51
2018-12-20T09:57:51.923Z,11.54
2018-12-20T09:58:50.469Z,11.51
2018-12-20T09:59:49.020Z,11.54
2018-12-20T10:00:47.615Z,11.6
2018-12-20T10:01:46.143Z,11.69
2018-12-20T10:02:44.736Z,11.69
2018-12-20T10:03:43.422Z,11.62
2018-12-20T10:04:41.996Z,11.52
2018-12-20T10:05:40.717Z,11.57
2018-12-20T10:06:39.328Z,11.57
2018-12-20T10:07:37.888Z,11.62
2018-12-20T10:08:36.399Z,11.62
2018-12-20T10:09:35.005Z,11.73
2018-12-20T10:10:33.651Z,11.69
2018-12-20T10:11:32.229Z,11.83
2018-12-20T10:12:30.748Z,11.76
2018-12-20T10:13:29.300Z,11.64
2018-12-20T10:14:27.830Z,11.69
2018-12-20T10:15:26.551Z,11.61
2018-12-20T10:16:25.557Z,11.72
2018-12-20T10:17:23.968Z,11.69
2018-12-20T10:18:22.596Z,11.73
2018-12-20T10:19:21.257Z,11.55
2018-12-20T10:20:19.768Z,11.4
2018-12-20T10:21:18.329Z,11.4
2018-12-20T10:22:16.865Z,11.32
2018-12-20T10:23:15.390Z,11.4
2018-12-20T10:24:14.036Z,11.47
2018-12-20T10:25:12.741Z,11.52
2018-12-20T10:26:11.574Z,11.54
2018-12-20T10:27:10.093Z,11.43
2018-12-20T10:28:08.725Z,11.46
2018-12-20T10:29:07.401Z,11.35
2018-12-20T10:30:05.913Z,11.43
2018-12-20T10:31:04.466Z,11.36
2018-12-20T10:32:03.006Z,11.18
2018-12-20T10:33:01.526Z,11.22
2018-12-20T10:34:00.172Z,11.04
2018-12-20T10:34:58.864Z,10.78
2018-12-20T10:35:57.539Z,10.78
2018-12-20T10:36:56.071Z,10.86
2018-12-20T10:37:54.818Z,10.94
2018-12-20T10:38:53.353Z,11.07
2018-12-20T10:39:51.952Z,11.15
2018-12-20T10:40:50.495Z,11.14
2018-12-20T10:41:49.092Z,11.32
2018-12-20T10:42:47.657Z,11.17
2018-12-20T10:43:46.219Z,11.21
2018-12-20T10:44:44.786Z,11.14
2018-12-20T10:45:43.313Z,11.35
2018-12-20T10:46:44.060Z,11.28
2018-12-20T10:47:40.599Z,11.35
2018-12-20T10:48:39.492Z,11.37
2018-12-20T10:49:38.048Z,11.44
2018-12-20T10:50:36.655Z,11.42
2018-12-20T10:51:35.303Z,11.39
2018-12-20T10:52:33.838Z,11.44
2018-12-20T10:53:32.389Z,11.33
2018-12-20T10:54:30.915Z,11.19
2018-12-20T10:55:29.443Z,11.24
2018-12-20T10:56:27.973Z,11.4
2018-12-20T10:57:26.561Z,11.46
2018-12-20T10:58:25.116Z,11.46
2018-12-20T10:59:23.644Z,11.42
2018-12-20T11:00:22.202Z,11.46
2018-12-20T11:01:21.318Z,11.51
2018-12-20T11:02:19.859Z,11.46
2018-12-20T11:03:18.408Z,11.49
2018-12-20T11:04:17.027Z,11.57
2018-12-20T11:05:15.626Z,11.54
2018-12-20T11:06:14.197Z,11.49
2018-12-20T11:07:12.938Z,11.46
2018-12-20T11:08:11.648Z,11.47
2018-12-20T11:09:10.165Z,11.54
2018-12-20T11:10:08.863Z,11.51
2018-12-20T11:11:07.410Z,11.52
2018-12-20T11:12:05.938Z,11.51
2018-12-20T11:13:04.516Z,11.54
2018-12-20T11:14:03.211Z,11.58
2018-12-20T11:15:01.761Z,11.52
2018-12-20T11:16:00.463Z,11.52
2018-12-20T11:16:59.114Z,11.52
2018-12-20T11:17:57.752Z,11.43
2018-12-20T11:18:56.275Z,11.39
2018-12-20T11:19:55.041Z,11.46
2018-12-20T11:20:53.595Z,11.54
2018-12-20T11:22:53.266Z,11.37
2018-12-20T11:23:51.817Z,11.36
2018-12-20T11:24:50.587Z,11.28
2018-12-20T11:25:49.257Z,11.27
2018-12-20T11:26:47.791Z,11.36
2018-12-20T11:27:46.361Z,11.28
2018-12-20T11:28:44.902Z,11.21
2018-12-20T11:29:43.429Z,11.18
2018-12-20T11:30:41.966Z,11.09
2018-12-20T11:31:40.594Z,11.11
2018-12-20T11:32:39.301Z,11.17
2018-12-20T11:33:37.902Z,11.18
2018-12-20T11:34:36.431Z,11.18
2018-12-20T11:37:16.824Z,11.15
2018-12-20T11:38:15.372Z,11.19
2018-12-20T11:39:14.000Z,11.18
2018-12-20T11:40:12.654Z,11.19
2018-12-20T11:41:11.315Z,11.15
2018-12-20T11:42:09.837Z,11
2018-12-20T11:43:08.398Z,10.99
2018-12-20T11:44:07.266Z,10.97
2018-12-20T11:45:05.798Z,11.07
2018-12-20T11:46:04.312Z,11.04
2018-12-20T11:47:03.028Z,11.1
2018-12-20T11:48:01.556Z,11.04
2018-12-20T11:49:00.096Z,11.02
2018-12-20T11:49:58.647Z,10.96
2018-12-20T11:50:57.200Z,10.92
2018-12-20T11:51:55.719Z,10.82
2018-12-20T11:54:35.719Z,10.88
2018-12-20T11:55:34.251Z,10.94
2018-12-20T11:56:32.959Z,10.99
2018-12-20T11:57:31.694Z,11.03
2018-12-20T11:58:30.254Z,11.07
2018-12-20T11:59:28.929Z,11.04
2018-12-20T12:00:27.686Z,11.09
2018-12-20T12:01:26.245Z,11.04
2018-12-20T12:02:24.918Z,11.09
2018-12-20T12:03:23.316Z,11.09
2018-12-20T12:04:21.845Z,10.94
2018-12-20T12:05:20.532Z,10.79
2018-12-20T12:06:19.391Z,10.81
2018-12-20T12:07:17.969Z,10.85
2018-12-20T12:08:16.621Z,10.86
2018-12-20T12:09:15.249Z,10.81
2018-12-20T12:10:13.760Z,10.82
2018-12-20T12:11:12.294Z,10.84
2018-12-20T12:19:32.001Z,10.79
2018-12-20T12:20:30.510Z,10.84
2018-12-20T12:21:29.406Z,10.82
2018-12-20T12:22:27.946Z,10.81
2018-12-20T12:24:35.715Z,10.88
2018-12-20T12:25:34.241Z,10.99
2018-12-20T12:26:32.871Z,10.96
2018-12-20T12:27:31.541Z,10.94
2018-12-20T12:28:30.835Z,10.94
2018-12-20T12:29:28.618Z,10.96
2018-12-20T12:30:27.199Z,10.97
2018-12-20T12:31:25.786Z,10.92
2018-12-20T12:32:24.308Z,10.94
2018-12-20T12:33:22.986Z,10.91
2018-12-20T12:34:21.561Z,11.06
2018-12-20T12:35:20.101Z,11.11
2018-12-20T12:36:18.705Z,11
2018-12-20T12:37:17.402Z,11.09
2018-12-20T12:38:15.931Z,11.06
2018-12-20T12:39:14.614Z,10.97
2018-12-20T12:40:13.231Z,11.02
2018-12-20T12:41:11.742Z,10.99
2018-12-20T12:42:10.361Z,10.94
2018-12-20T12:43:08.879Z,10.99
2018-12-20T12:44:09.313Z,11.02
2018-12-20T12:45:05.990Z,11
2018-12-20T12:46:04.760Z,11.14
2018-12-20T12:47:03.520Z,11.15
2018-12-20T12:48:03.372Z,11.15
2018-12-20T12:49:00.824Z,11.19
2018-12-20T12:49:59.403Z,11.15
2018-12-20T12:50:57.967Z,11.19
2018-12-20T12:51:56.501Z,11.18
2018-12-20T12:52:55.050Z,11.17
2018-12-20T12:53:53.586Z,11.21
2018-12-20T12:54:52.111Z,11.15
2018-12-20T12:55:50.624Z,11.17
2018-12-20T12:56:49.202Z,11.18
2018-12-20T12:57:47.720Z,11.19
2018-12-20T12:58:46.256Z,11.32
2018-12-20T12:59:44.934Z,11.33
2018-12-20T13:00:43.691Z,11.32
2018-12-20T13:01:42.241Z,11.29
2018-12-20T13:02:40.939Z,11.44
2018-12-20T13:03:39.644Z,11.32
2018-12-20T13:04:38.176Z,11.35
2018-12-20T13:05:36.709Z,11.39
2018-12-20T13:06:35.214Z,11.24
2018-12-20T13:07:33.804Z,11.33
2018-12-20T13:08:32.329Z,11.24
2018-12-20T13:09:30.892Z,11.21
2018-12-20T13:10:29.448Z,11.22
2018-12-20T13:11:28.006Z,11.19
2018-12-20T13:12:26.535Z,11.14
2018-12-20T13:13:25.252Z,11.04
2018-12-20T13:14:23.824Z,11.18
2018-12-20T13:15:22.400Z,11.1
2018-12-20T13:16:21.071Z,11.14
2018-12-20T13:17:19.677Z,11.15
2018-12-20T13:18:18.217Z,11.1
2018-12-20T13:19:16.906Z,11.04
2018-12-20T13:20:15.514Z,11.09
2018-12-20T13:21:14.062Z,10.99
2018-12-20T13:22:12.628Z,11.07
2018-12-20T13:23:11.346Z,11.06
2018-12-20T13:24:09.885Z,11.15
2018-12-20T13:25:08.427Z,11.1
2018-12-20T13:26:07.363Z,11.03
2018-12-20T13:27:05.930Z,11.07
2018-12-20T13:28:04.426Z,11.06
2018-12-20T13:29:03.096Z,11
2018-12-20T13:30:01.638Z,11.19
2018-12-20T13:31:00.214Z,11.18
2018-12-20T13:31:58.956Z,11.14
2018-12-20T13:32:57.584Z,11.03
2018-12-20T13:33:56.177Z,11.1
2018-12-20T13:34:55.875Z,11.07
2018-12-20T13:35:54.356Z,10.99
2018-12-20T13:36:52.951Z,11.02
2018-12-20T13:37:51.642Z,11.04
2018-12-20T13:38:50.207Z,11.06
2018-12-20T13:39:48.758Z,11.06
2018-12-20T13:40:47.285Z,10.97
2018-12-20T13:41:45.838Z,10.97
2018-12-20T13:42:44.622Z,10.99
2018-12-20T13:43:43.543Z,10.96
2018-12-20T13:44:42.049Z,10.97
2018-12-20T13:45:40.679Z,11.07
2018-12-20T13:46:39.287Z,11.11
2018-12-20T13:47:37.824Z,11.04
2018-12-20T13:48:36.372Z,11.06
2018-12-20T13:49:34.899Z,11.07
2018-12-20T13:50:33.501Z,11.06
2018-12-20T13:51:32.066Z,11.02
2018-12-20T13:52:30.602Z,10.99
2018-12-20T13:53:29.334Z,10.88
2018-12-20T13:54:27.869Z,10.94
2018-12-20T13:55:26.417Z,10.96
2018-12-20T13:56:25.291Z,10.92
2018-12-20T13:57:23.829Z,10.91
2018-12-20T13:58:22.409Z,10.94
2018-12-20T13:59:21.070Z,11.07
2018-12-20T14:00:19.627Z,11.1
2018-12-20T14:01:18.162Z,11.06
2018-12-20T14:02:16.714Z,11.09
2018-12-20T14:03:15.203Z,11.07
2018-12-20T14:04:13.776Z,11.03
2018-12-20T14:05:12.328Z,11.06
2018-12-20T14:06:11.075Z,11.09
2018-12-20T14:07:09.798Z,11.03
2018-12-20T14:08:08.338Z,10.97
2018-12-20T14:09:07.012Z,11.07
2018-12-20T14:10:05.695Z,11.06
2018-12-20T14:11:04.284Z,11
2018-12-20T14:12:02.821Z,11.1
2018-12-20T14:13:01.396Z,10.96
2018-12-20T14:13:59.939Z,11.04
2018-12-20T14:14:58.666Z,11.04
2018-12-20T14:15:57.565Z,11
2018-12-20T14:16:56.131Z,10.99
2018-12-20T14:17:54.805Z,11.04
2018-12-20T14:18:53.380Z,11.07
2018-12-20T14:19:51.955Z,11.06
2018-12-20T14:20:50.507Z,11.06
2018-12-20T14:21:49.145Z,11.09
2018-12-20T14:22:47.668Z,11.06
2018-12-20T14:23:46.245Z,11.1
2018-12-20T14:24:45.342Z,11.06
2018-12-20T14:25:43.904Z,11
2018-12-20T14:26:42.484Z,10.96
2018-12-20T14:27:41.062Z,11.03
2018-12-20T14:28:39.610Z,10.96
2018-12-20T14:29:38.156Z,11
2018-12-20T14:30:36.731Z,10.91
2018-12-20T14:31:35.440Z,10.99
2018-12-20T14:32:33.965Z,10.97
2018-12-20T14:33:32.829Z,10.91